createdAt,value
2017-02-27T00:00:56.006Z,10.66
2017-02-27T00:02:06.293Z,10.82
2017-02-27T00:03:16.163Z,10.85
2017-02-27T00:04:25.248Z,10.81
2017-02-27T00:05:34.352Z,10.86
2017-02-27T00:06:44.204Z,10.84
2017-02-27T00:07:52.900Z,10.82
2017-02-27T00:09:01.984Z,10.85
2017-02-27T00:10:11.511Z,10.7
2017-02-27T00:11:21.013Z,10.79
2017-02-27T00:12:29.708Z,10.79
2017-02-27T00:13:39.555Z,10.84
2017-02-27T00:14:49.441Z,10.82
2017-02-27T00:15:59.300Z,10.7
2017-02-27T00:17:08.420Z,10.86
2017-02-27T00:18:17.890Z,10.85
2017-02-27T00:19:26.989Z,10.76
2017-02-27T00:20:37.224Z,10.82
2017-02-27T00:21:46.315Z,10.79
2017-02-27T00:22:56.185Z,10.81
2017-02-27T00:24:06.048Z,10.88
2017-02-27T00:25:15.526Z,10.79
2017-02-27T00:26:25.005Z,10.88
2017-02-27T00:27:34.858Z,10.86
2017-02-27T00:28:44.342Z,10.74
2017-02-27T00:29:54.184Z,10.82
2017-02-27T00:31:03.656Z,10.71
2017-02-27T00:32:13.908Z,10.73
2017-02-27T00:33:23.776Z,10.82
2017-02-27T00:34:33.288Z,10.76
2017-02-27T00:35:42.372Z,10.78
2017-02-27T00:36:52.229Z,10.82
2017-02-27T00:38:01.304Z,10.78
2017-02-27T00:39:10.770Z,10.81
2017-02-27T00:40:21.020Z,10.78
2017-02-27T00:41:30.523Z,10.82
2017-02-27T00:42:40.395Z,10.85
2017-02-27T00:43:49.488Z,10.71
2017-02-27T00:44:59.342Z,10.73
2017-02-27T00:46:09.207Z,10.85
2017-02-27T00:47:19.056Z,10.79
2017-02-27T00:48:28.544Z,10.79
2017-02-27T00:49:38.011Z,10.81
2017-02-27T00:50:47.096Z,10.85
2017-02-27T00:51:56.969Z,10.7
2017-02-27T00:53:07.205Z,10.85
2017-02-27T00:54:15.902Z,10.76
2017-02-27T00:55:25.787Z,10.81
2017-02-27T00:56:34.862Z,10.71
2017-02-27T00:57:43.962Z,10.82
2017-02-27T00:58:54.188Z,10.82
2017-02-27T01:00:03.661Z,10.81
2017-02-27T01:01:13.900Z,10.82
2017-02-27T01:02:23.812Z,10.82
2017-02-27T01:03:33.293Z,10.76
2017-02-27T01:04:42.761Z,10.81
2017-02-27T01:05:51.875Z,10.76
2017-02-27T01:07:01.722Z,10.78
2017-02-27T01:08:11.210Z,10.76
2017-02-27T01:09:21.065Z,10.81
2017-02-27T01:10:31.293Z,10.68
2017-02-27T01:11:40.760Z,10.81
2017-02-27T01:12:50.623Z,10.73
2017-02-27T01:13:59.336Z,10.76
2017-02-27T01:15:08.414Z,10.79
2017-02-27T01:16:18.275Z,10.7
2017-02-27T01:17:27.373Z,10.78
2017-02-27T01:18:36.847Z,10.82
2017-02-27T01:19:45.555Z,10.84
2017-02-27T01:20:55.406Z,10.81
2017-02-27T01:22:04.118Z,10.92
2017-02-27T01:23:13.587Z,10.85
2017-02-27T01:24:23.483Z,10.86
2017-02-27T01:25:32.175Z,10.78
2017-02-27T01:26:41.674Z,10.71
2017-02-27T01:27:50.783Z,10.82
2017-02-27T01:29:00.246Z,10.85
2017-02-27T01:30:09.723Z,10.76
2017-02-27T01:31:18.799Z,10.71
2017-02-27T01:32:28.284Z,10.68
2017-02-27T01:33:38.149Z,10.74
2017-02-27T01:34:47.226Z,10.84
2017-02-27T01:46:38.461Z,10.74
2017-02-27T01:53:48.372Z,10.63
2017-02-27T01:54:58.238Z,10.76
2017-02-27T01:56:08.112Z,10.76
2017-02-27T01:57:17.214Z,10.78
2017-02-27T01:58:26.309Z,10.76
2017-02-27T01:59:36.556Z,10.86
2017-02-27T02:00:46.400Z,10.82
2017-02-27T02:01:56.650Z,10.82
2017-02-27T02:03:06.511Z,10.66
2017-02-27T02:04:17.148Z,10.74
2017-02-27T02:05:27.399Z,10.76
2017-02-27T02:06:36.497Z,10.71
2017-02-27T02:07:45.583Z,10.7
2017-02-27T02:08:55.056Z,10.64
2017-02-27T02:10:04.157Z,10.64
2017-02-27T02:11:13.258Z,10.64
2017-02-27T02:12:22.360Z,10.63
2017-02-27T02:13:31.840Z,10.63
2017-02-27T02:14:41.684Z,10.68
2017-02-27T02:15:51.166Z,10.63
2017-02-27T02:17:01.013Z,10.64
2017-02-27T02:18:10.491Z,10.61
2017-02-27T02:19:19.979Z,10.66
2017-02-27T02:20:29.078Z,10.64
2017-02-27T02:21:38.561Z,10.76
2017-02-27T02:22:48.040Z,10.81
2017-02-27T02:23:58.292Z,10.76
2017-02-27T02:25:06.996Z,10.79
2017-02-27T02:26:17.237Z,10.79
2017-02-27T02:27:26.733Z,10.78
2017-02-27T02:28:35.811Z,10.81
2017-02-27T02:29:45.674Z,10.71
2017-02-27T02:30:54.788Z,10.82
2017-02-27T02:32:04.267Z,10.79
2017-02-27T02:33:13.728Z,10.79
2017-02-27T02:34:23.194Z,10.82
2017-02-27T02:35:32.688Z,10.82
2017-02-27T02:36:41.776Z,10.78
2017-02-27T02:37:51.281Z,10.74
2017-02-27T02:39:01.130Z,10.79
2017-02-27T02:40:10.985Z,10.76
2017-02-27T02:41:20.450Z,10.86
2017-02-27T02:42:30.362Z,10.82
2017-02-27T02:43:39.451Z,10.79
2017-02-27T02:44:49.319Z,10.84
2017-02-27T02:45:58.801Z,10.85
2017-02-27T02:47:08.670Z,10.85
2017-02-27T02:48:17.758Z,10.81
2017-02-27T02:49:27.616Z,10.91
2017-02-27T02:50:37.459Z,10.97
2017-02-27T02:51:46.937Z,10.94
2017-02-27T02:52:56.414Z,10.94
2017-02-27T02:54:05.876Z,10.91
2017-02-27T02:55:16.132Z,10.96
2017-02-27T02:56:25.228Z,11.02
2017-02-27T02:57:34.693Z,10.96
2017-02-27T02:58:44.160Z,11.07
2017-02-27T02:59:54.403Z,11.04
2017-02-27T03:01:04.656Z,11
2017-02-27T03:02:14.154Z,11.04
2017-02-27T03:03:24.057Z,11.04
2017-02-27T03:04:33.969Z,11.09
2017-02-27T03:05:43.851Z,11.09
2017-02-27T03:06:53.343Z,11.11
2017-02-27T03:08:02.829Z,11.1
2017-02-27T03:09:12.293Z,11.09
2017-02-27T03:10:21.751Z,11.21
2017-02-27T03:11:31.998Z,11.07
2017-02-27T03:12:41.094Z,11.1
2017-02-27T03:13:50.185Z,11.15
2017-02-27T03:14:59.669Z,11.04
2017-02-27T03:16:08.757Z,11.06
2017-02-27T03:17:18.240Z,11.06
2017-02-27T03:18:27.339Z,11.11
2017-02-27T03:19:36.820Z,11.04
2017-02-27T03:20:45.524Z,11.03
2017-02-27T03:21:55.016Z,11.11
2017-02-27T03:23:04.492Z,11.04
2017-02-27T03:24:14.360Z,11.14
2017-02-27T03:25:23.821Z,11.17
2017-02-27T03:26:34.061Z,11.09
2017-02-27T03:27:43.960Z,11.1
2017-02-27T03:28:52.683Z,11.07
2017-02-27T03:30:01.988Z,11.15
2017-02-27T03:31:11.099Z,11.1
2017-02-27T03:32:19.804Z,11.1
2017-02-27T03:33:29.659Z,10.99
2017-02-27T03:34:39.909Z,11.07
2017-02-27T03:35:49.397Z,11
2017-02-27T03:36:58.873Z,11
2017-02-27T03:38:08.353Z,11
2017-02-27T03:39:17.848Z,11.06
2017-02-27T03:40:27.340Z,11.11
2017-02-27T03:41:36.457Z,11.15
2017-02-27T03:42:46.312Z,11.17
2017-02-27T03:43:55.784Z,11.33
2017-02-27T03:45:04.505Z,11.28
2017-02-27T03:46:13.604Z,11.25
2017-02-27T03:47:22.689Z,11.25
2017-02-27T03:48:32.159Z,11.17
2017-02-27T03:49:42.053Z,11.17
2017-02-27T03:50:51.924Z,11.15
2017-02-27T03:52:01.406Z,11.09
2017-02-27T03:53:10.119Z,11.15
2017-02-27T03:54:19.604Z,11.09
2017-02-27T03:55:29.055Z,11.1
2017-02-27T03:56:38.521Z,11.09
2017-02-27T03:57:48.390Z,11.1
2017-02-27T03:58:57.861Z,11.14
2017-02-27T04:00:08.102Z,11.15
2017-02-27T04:01:17.194Z,11.06
2017-02-27T04:02:27.060Z,11.11
2017-02-27T04:03:36.566Z,10.96
2017-02-27T04:04:45.679Z,11.06
2017-02-27T04:05:54.770Z,11.06
2017-02-27T04:07:04.648Z,11.02
2017-02-27T04:08:21.012Z,11.06
2017-02-27T04:09:35.400Z,11.02
2017-02-27T04:10:57.833Z,11.02
2017-02-27T04:12:15.575Z,11.03
2017-02-27T04:13:31.334Z,11.02
2017-02-27T04:14:41.194Z,10.92
2017-02-27T04:15:53.917Z,10.88
2017-02-27T04:17:08.376Z,10.97
2017-02-27T04:18:18.397Z,10.96
2017-02-27T04:19:27.676Z,11.06
2017-02-27T04:20:37.168Z,10.99
2017-02-27T04:21:46.655Z,11.07
2017-02-27T04:22:56.534Z,11
2017-02-27T04:24:06.017Z,10.97
2017-02-27T04:25:15.907Z,10.92
2017-02-27T04:26:24.621Z,10.85
2017-02-27T04:27:34.485Z,10.89
2017-02-27T04:28:43.965Z,10.85
2017-02-27T04:29:53.820Z,10.79
2017-02-27T04:31:03.306Z,10.82
2017-02-27T04:32:12.769Z,10.85
2017-02-27T04:33:23.004Z,10.82
2017-02-27T04:34:32.121Z,10.84
2017-02-27T04:35:41.991Z,10.84
2017-02-27T04:36:50.694Z,10.85
2017-02-27T04:38:00.536Z,10.89
2017-02-27T04:39:10.810Z,10.85
2017-02-27T04:40:21.059Z,10.86
2017-02-27T04:41:31.299Z,10.78
2017-02-27T04:42:40.795Z,10.88
2017-02-27T04:43:50.632Z,10.84
2017-02-27T04:44:59.730Z,10.79
2017-02-27T04:46:09.201Z,10.79
2017-02-27T04:47:19.085Z,10.81
2017-02-27T04:48:28.972Z,10.73
2017-02-27T04:49:38.064Z,10.85
2017-02-27T04:50:47.931Z,10.81
2017-02-27T04:51:57.408Z,10.71
2017-02-27T04:53:06.859Z,10.74
2017-02-27T04:54:16.329Z,10.85
2017-02-27T04:55:25.820Z,10.74
2017-02-27T04:56:34.905Z,10.85
2017-02-27T04:57:44.776Z,10.86
2017-02-27T04:58:54.227Z,10.81
2017-02-27T05:00:04.471Z,10.85
2017-02-27T05:01:14.694Z,10.82
2017-02-27T05:02:24.166Z,10.84
2017-02-27T05:03:34.018Z,10.81
2017-02-27T05:04:44.621Z,10.79
2017-02-27T05:05:53.721Z,10.74
2017-02-27T05:07:02.838Z,10.79
2017-02-27T05:08:13.085Z,10.78
2017-02-27T05:09:21.779Z,10.71
2017-02-27T05:10:31.256Z,10.82
2017-02-27T05:11:41.106Z,10.84
2017-02-27T05:12:50.612Z,10.78
2017-02-27T05:14:00.838Z,10.79
2017-02-27T05:15:10.705Z,10.7
2017-02-27T05:16:20.560Z,10.76
2017-02-27T05:17:30.835Z,10.63
2017-02-27T05:18:39.537Z,10.64
2017-02-27T05:19:49.014Z,10.64
2017-02-27T05:20:58.483Z,10.63
2017-02-27T05:22:09.130Z,10.66
2017-02-27T05:23:17.823Z,10.64
2017-02-27T05:24:27.301Z,10.66
2017-02-27T05:25:36.389Z,10.53
2017-02-27T05:26:45.494Z,10.61
2017-02-27T05:27:55.383Z,10.59
2017-02-27T05:29:04.900Z,10.48
2017-02-27T05:30:14.381Z,10.51
2017-02-27T05:31:23.866Z,10.56
2017-02-27T05:32:33.347Z,10.51
2017-02-27T05:33:42.445Z,10.47
2017-02-27T05:34:51.536Z,10.44
2017-02-27T05:36:00.669Z,10.55
2017-02-27T05:37:09.765Z,10.33
2017-02-27T05:38:19.262Z,10.44
2017-02-27T05:39:27.971Z,10.38
2017-02-27T05:40:38.254Z,10.38
2017-02-27T05:41:48.122Z,10.48
2017-02-27T05:42:57.219Z,10.33
2017-02-27T05:44:06.688Z,10.55
2017-02-27T05:45:16.532Z,10.47
2017-02-27T05:46:26.387Z,10.51
2017-02-27T05:47:36.612Z,10.41
2017-02-27T05:48:46.448Z,10.48
2017-02-27T05:49:55.919Z,10.52
2017-02-27T05:51:05.023Z,10.47
2017-02-27T05:52:14.489Z,10.52
2017-02-27T05:53:24.362Z,10.55
2017-02-27T05:54:34.238Z,10.51
2017-02-27T05:55:42.956Z,10.52
2017-02-27T05:56:51.659Z,10.53
2017-02-27T05:58:00.749Z,10.59
2017-02-27T05:59:10.981Z,10.63
2017-02-27T06:00:20.457Z,10.79
2017-02-27T06:01:29.943Z,10.82
2017-02-27T06:02:39.859Z,10.78
2017-02-27T06:03:49.707Z,10.79
2017-02-27T06:04:58.794Z,10.68
2017-02-27T06:06:08.657Z,10.66
2017-02-27T06:07:18.121Z,10.71
2017-02-27T06:08:26.823Z,10.79
2017-02-27T06:09:36.325Z,10.81
2017-02-27T06:10:46.176Z,10.79
2017-02-27T06:11:56.068Z,10.7
2017-02-27T06:13:05.158Z,10.74
2017-02-27T06:14:15.010Z,10.81
2017-02-27T06:15:24.870Z,10.81
2017-02-27T06:16:34.742Z,10.78
2017-02-27T06:17:43.847Z,10.88
2017-02-27T06:18:53.349Z,10.85
2017-02-27T06:20:02.849Z,10.76
2017-02-27T06:21:11.931Z,10.74
2017-02-27T06:22:21.771Z,10.78
2017-02-27T06:23:30.478Z,10.85
2017-02-27T06:24:39.571Z,10.82
2017-02-27T06:25:49.444Z,10.79
2017-02-27T06:26:58.946Z,10.68
2017-02-27T06:28:08.422Z,10.78
2017-02-27T06:29:18.289Z,10.76
2017-02-27T06:30:28.136Z,10.76
2017-02-27T06:31:37.617Z,10.71
2017-02-27T06:32:46.731Z,10.82
2017-02-27T06:33:56.570Z,10.7
2017-02-27T06:35:06.075Z,10.73
2017-02-27T06:36:15.557Z,10.67
2017-02-27T06:37:24.636Z,10.78
2017-02-27T06:38:33.718Z,10.82
2017-02-27T06:39:43.954Z,10.81
2017-02-27T06:40:53.424Z,10.84
2017-02-27T06:42:03.674Z,10.85
2017-02-27T06:43:13.553Z,10.85
2017-02-27T06:44:23.033Z,10.81
2017-02-27T06:45:32.916Z,10.74
2017-02-27T06:46:43.159Z,10.84
2017-02-27T06:47:52.242Z,10.79
2017-02-27T06:49:02.851Z,10.78
2017-02-27T06:50:12.342Z,10.84
2017-02-27T06:51:21.430Z,10.86
2017-02-27T06:52:31.292Z,10.82
2017-02-27T06:53:40.766Z,10.73
2017-02-27T06:54:50.602Z,10.81
2017-02-27T06:56:00.500Z,10.85
2017-02-27T06:57:10.350Z,10.92
2017-02-27T06:58:19.822Z,10.88
2017-02-27T06:59:28.899Z,11
2017-02-27T07:00:37.996Z,11.07
2017-02-27T07:01:47.487Z,11.09
2017-02-27T07:02:56.958Z,11.15
2017-02-27T07:04:06.835Z,11.18
2017-02-27T07:05:15.941Z,11.11
2017-02-27T07:06:25.051Z,11.21
2017-02-27T07:07:34.139Z,11.11
2017-02-27T07:08:43.609Z,11.27
2017-02-27T07:09:53.449Z,11.33
2017-02-27T07:11:03.295Z,11.22
2017-02-27T07:12:12.385Z,11.21
2017-02-27T07:13:21.879Z,11.22
2017-02-27T07:14:31.738Z,11.29
2017-02-27T07:15:41.219Z,11.32
2017-02-27T07:16:50.295Z,11.25
2017-02-27T07:18:00.158Z,11.24
2017-02-27T07:19:09.264Z,11.28
2017-02-27T07:20:19.526Z,11.17
2017-02-27T07:21:29.010Z,11.25
2017-02-27T07:22:38.496Z,11.19
2017-02-27T07:23:47.970Z,11.33
2017-02-27T07:24:57.455Z,11.35
2017-02-27T07:26:06.929Z,11.35
2017-02-27T07:27:16.783Z,11.43
2017-02-27T07:28:26.247Z,11.42
2017-02-27T07:29:35.339Z,11.4
2017-02-27T07:30:45.189Z,11.35
2017-02-27T07:31:55.048Z,11.47
2017-02-27T07:33:04.544Z,11.55
2017-02-27T07:34:14.021Z,11.49
2017-02-27T07:35:23.518Z,11.37
2017-02-27T07:36:32.228Z,11.54
2017-02-27T07:37:41.693Z,11.54
2017-02-27T07:38:50.784Z,11.58
2017-02-27T07:39:59.505Z,11.55
2017-02-27T07:41:09.745Z,11.51
2017-02-27T07:42:18.820Z,11.58
2017-02-27T07:43:28.299Z,11.43
2017-02-27T07:44:37.392Z,11.46
2017-02-27T07:45:47.266Z,11.42
2017-02-27T07:46:57.503Z,11.33
2017-02-27T07:48:06.634Z,11.33
2017-02-27T07:49:16.108Z,11.28
2017-02-27T07:50:25.580Z,11.39
2017-02-27T07:51:34.667Z,11.35
2017-02-27T07:52:43.852Z,11.33
2017-02-27T07:53:53.700Z,11.33
2017-02-27T07:55:02.809Z,11.42
2017-02-27T07:56:12.295Z,11.4
2017-02-27T07:57:22.183Z,11.35
2017-02-27T07:58:31.263Z,11.37
2017-02-27T07:59:40.351Z,11.29
2017-02-27T08:00:49.833Z,11.43
2017-02-27T08:01:59.691Z,11.42
2017-02-27T08:03:09.161Z,11.52
2017-02-27T08:04:18.245Z,11.43
2017-02-27T08:05:27.339Z,11.46
2017-02-27T08:06:37.194Z,11.43
2017-02-27T08:07:46.672Z,11.46
2017-02-27T08:08:56.146Z,11.46
2017-02-27T08:10:06.395Z,11.47
2017-02-27T08:11:15.852Z,11.43
2017-02-27T08:12:25.719Z,11.32
2017-02-27T08:13:35.179Z,11.39
2017-02-27T08:14:45.407Z,11.35
2017-02-27T08:15:55.285Z,11.36
2017-02-27T08:17:04.362Z,11.42
2017-02-27T08:18:13.453Z,11.35
2017-02-27T08:19:22.560Z,11.32
2017-02-27T08:20:32.016Z,11.37
2017-02-27T08:21:41.112Z,11.39
2017-02-27T08:22:50.582Z,11.32
2017-02-27T08:24:00.425Z,11.39
2017-02-27T08:25:09.507Z,11.43
2017-02-27T08:26:19.008Z,11.43
2017-02-27T08:27:28.869Z,11.6
2017-02-27T08:28:38.728Z,11.57
2017-02-27T08:29:48.204Z,11.65
2017-02-27T08:30:57.676Z,11.67
2017-02-27T08:32:07.545Z,11.79
2017-02-27T08:33:17.403Z,11.99
2017-02-27T08:34:27.303Z,12.07
2017-02-27T08:35:37.931Z,12.21
2017-02-27T08:36:47.406Z,12.23
2017-02-27T08:37:57.263Z,12.24
2017-02-27T08:39:06.380Z,12.29
2017-02-27T08:40:16.617Z,12.24
2017-02-27T08:41:26.107Z,12.21
2017-02-27T08:42:35.593Z,12.23
2017-02-27T08:43:45.866Z,12.19
2017-02-27T08:44:56.096Z,12.16
2017-02-27T08:46:05.571Z,12.16
2017-02-27T08:47:15.034Z,12.24
2017-02-27T08:48:24.885Z,12.14
2017-02-27T08:49:34.366Z,12.23
2017-02-27T08:50:43.444Z,12.32
2017-02-27T08:51:52.946Z,12.24
2017-02-27T08:53:02.796Z,12.27
2017-02-27T08:54:12.277Z,12.34
2017-02-27T08:55:21.791Z,12.29
2017-02-27T08:56:31.662Z,12.14
2017-02-27T08:57:41.137Z,12.2
2017-02-27T08:58:50.243Z,12.28
2017-02-27T08:59:59.728Z,12.29
2017-02-27T09:01:08.829Z,12.28
2017-02-27T09:02:17.949Z,12.29
2017-02-27T09:03:27.470Z,12.29
2017-02-27T09:04:36.951Z,12.28
2017-02-27T09:05:47.574Z,12.35
2017-02-27T09:06:57.803Z,12.35
2017-02-27T09:08:07.650Z,12.32
2017-02-27T09:09:17.522Z,12.27
2017-02-27T09:10:26.225Z,12.35
2017-02-27T09:11:36.864Z,12.23
2017-02-27T09:12:47.101Z,12.16
2017-02-27T09:13:56.967Z,12.14
2017-02-27T09:15:06.467Z,12.1
2017-02-27T09:16:15.565Z,12.1
2017-02-27T09:17:25.428Z,12.09
2017-02-27T09:18:34.912Z,12.09
2017-02-27T09:19:45.178Z,12.01
2017-02-27T09:20:54.651Z,12.01
2017-02-27T09:22:04.134Z,12.05
2017-02-27T09:23:13.613Z,12.07
2017-02-27T09:24:23.475Z,11.95
2017-02-27T09:25:32.927Z,12.04
2017-02-27T09:26:49.269Z,12.04
2017-02-27T09:27:58.353Z,11.91
2017-02-27T09:29:08.232Z,12.02
2017-02-27T09:30:17.724Z,12.02
2017-02-27T09:31:27.581Z,12.04
2017-02-27T09:32:36.315Z,11.95
2017-02-27T09:33:45.418Z,11.99
2017-02-27T09:34:55.285Z,12.07
2017-02-27T09:36:05.549Z,12.07
2017-02-27T09:37:14.656Z,12.13
2017-02-27T09:38:24.118Z,12.21
2017-02-27T09:39:34.004Z,12.27
2017-02-27T09:40:43.480Z,12.28
2017-02-27T09:41:52.585Z,12.31
2017-02-27T09:43:01.694Z,12.32
2017-02-27T09:44:11.559Z,12.42
2017-02-27T09:45:20.662Z,12.46
2017-02-27T09:46:30.939Z,12.34
2017-02-27T09:47:40.800Z,12.29
2017-02-27T09:48:50.506Z,12.23
2017-02-27T09:50:00.347Z,12.31
2017-02-27T09:51:10.203Z,12.41
2017-02-27T09:52:18.926Z,12.49
2017-02-27T09:53:28.410Z,12.59
2017-02-27T09:54:37.497Z,12.67
2017-02-27T09:55:47.347Z,12.67
2017-02-27T09:56:57.235Z,12.74
2017-02-27T09:58:06.709Z,12.68
2017-02-27T09:59:16.188Z,12.59
2017-02-27T10:00:25.300Z,12.71
2017-02-27T10:01:35.173Z,12.83
2017-02-27T10:02:45.405Z,12.86
2017-02-27T10:03:55.263Z,12.89
2017-02-27T10:05:04.753Z,12.89
2017-02-27T10:06:14.618Z,12.95
2017-02-27T10:07:24.489Z,12.89
2017-02-27T10:08:34.344Z,12.93
2017-02-27T10:09:43.836Z,13.07
2017-02-27T10:10:53.691Z,13.07
2017-02-27T10:12:03.179Z,12.96
2017-02-27T10:13:12.649Z,12.97
2017-02-27T10:14:22.515Z,12.97
2017-02-27T10:15:32.375Z,12.89
2017-02-27T10:16:41.103Z,12.89
2017-02-27T10:17:50.987Z,12.82
2017-02-27T10:19:01.629Z,12.75
2017-02-27T10:20:11.109Z,12.72
2017-02-27T10:21:20.972Z,12.64
2017-02-27T10:22:30.445Z,12.54
2017-02-27T10:23:39.534Z,12.53
2017-02-27T10:24:49.391Z,12.5
2017-02-27T10:25:58.878Z,12.53
2017-02-27T10:27:08.743Z,12.41
2017-02-27T10:28:18.619Z,12.39
2017-02-27T10:29:28.487Z,12.49
2017-02-27T10:30:38.353Z,12.47
2017-02-27T10:31:47.450Z,12.47
2017-02-27T10:32:57.752Z,12.35
2017-02-27T10:34:07.619Z,12.49
2017-02-27T10:35:16.350Z,12.45
2017-02-27T10:36:26.193Z,12.45
2017-02-27T10:37:36.448Z,12.35
2017-02-27T10:38:46.708Z,12.39
2017-02-27T10:39:56.573Z,12.45
2017-02-27T10:41:06.039Z,12.46
2017-02-27T10:42:15.131Z,12.42
2017-02-27T10:43:24.233Z,12.41
2017-02-27T10:44:32.950Z,12.38
2017-02-27T10:45:42.821Z,12.49
2017-02-27T10:46:52.303Z,12.54
2017-02-27T10:48:01.764Z,12.39
2017-02-27T10:49:11.633Z,12.45
2017-02-27T10:50:21.509Z,12.54
2017-02-27T10:51:30.597Z,12.54
2017-02-27T10:52:40.073Z,12.59
2017-02-27T10:53:49.950Z,12.67
2017-02-27T10:55:00.606Z,12.68
2017-02-27T10:56:10.846Z,12.53
2017-02-27T10:57:21.092Z,12.53
2017-02-27T10:58:29.823Z,12.53
2017-02-27T10:59:40.083Z,12.5
2017-02-27T11:00:49.580Z,12.5
2017-02-27T11:01:59.431Z,12.53
2017-02-27T11:03:08.147Z,12.53
2017-02-27T11:04:18.006Z,12.67
2017-02-27T11:05:27.477Z,12.6
2017-02-27T11:06:37.331Z,12.74
2017-02-27T11:07:46.825Z,12.67
2017-02-27T11:08:56.316Z,12.67
2017-02-27T11:10:06.194Z,12.72
2017-02-27T11:11:15.667Z,12.64
2017-02-27T11:12:24.376Z,12.65
2017-02-27T11:13:33.465Z,12.64
2017-02-27T11:14:42.547Z,12.7
2017-02-27T11:15:52.058Z,12.62
2017-02-27T11:17:02.311Z,12.65
2017-02-27T11:18:11.783Z,12.54
2017-02-27T11:19:21.255Z,12.52
2017-02-27T11:20:31.495Z,12.45
2017-02-27T11:21:41.003Z,12.54
2017-02-27T11:22:50.912Z,12.46
2017-02-27T11:24:00.012Z,12.52
2017-02-27T11:25:10.265Z,12.56
2017-02-27T11:26:19.791Z,12.52
2017-02-27T11:27:29.640Z,12.5
2017-02-27T11:28:39.523Z,12.54
2017-02-27T11:29:48.995Z,12.52
2017-02-27T11:30:58.496Z,12.56
2017-02-27T11:32:07.610Z,12.75
2017-02-27T11:33:17.477Z,12.82
2017-02-27T11:34:26.971Z,12.9
2017-02-27T11:35:36.090Z,13.11
2017-02-27T11:36:45.186Z,13.32
2017-02-27T11:37:54.273Z,13.26
2017-02-27T11:39:04.160Z,13.39
2017-02-27T11:40:13.265Z,13.2
2017-02-27T11:41:22.729Z,13.07
2017-02-27T11:42:32.980Z,13.05
2017-02-27T11:43:42.876Z,13.08
2017-02-27T11:44:52.762Z,13.15
2017-02-27T11:46:02.646Z,13.2
2017-02-27T11:47:12.140Z,13.08
2017-02-27T11:48:22.013Z,13.15
2017-02-27T11:49:31.860Z,13.08
2017-02-27T11:50:40.938Z,12.96
2017-02-27T11:51:50.029Z,12.79
2017-02-27T11:52:59.110Z,12.85
2017-02-27T11:54:07.818Z,12.78
2017-02-27T11:55:18.081Z,12.83
2017-02-27T11:56:27.941Z,12.71
2017-02-27T11:57:37.797Z,12.72
2017-02-27T11:58:47.657Z,12.71
2017-02-27T11:59:57.158Z,12.65
2017-02-27T12:01:06.272Z,12.68
2017-02-27T12:02:15.753Z,12.68
2017-02-27T12:03:25.615Z,12.67
2017-02-27T12:04:34.718Z,12.71
2017-02-27T12:05:44.183Z,12.78
2017-02-27T12:06:54.058Z,12.86
2017-02-27T12:08:03.916Z,12.75
2017-02-27T12:09:13.380Z,12.75
2017-02-27T12:10:23.644Z,12.78
2017-02-27T12:11:33.498Z,12.77
2017-02-27T12:12:42.599Z,12.74
2017-02-27T12:13:52.081Z,12.75
2017-02-27T12:15:01.971Z,12.74
2017-02-27T12:16:11.470Z,12.79
2017-02-27T12:17:20.954Z,12.78
2017-02-27T12:18:30.043Z,12.85
2017-02-27T12:19:40.292Z,12.79
2017-02-27T12:20:49.780Z,12.75
2017-02-27T12:21:59.248Z,12.82
2017-02-27T12:23:08.336Z,12.85
2017-02-27T12:24:17.821Z,12.93
2017-02-27T12:25:27.688Z,12.92
2017-02-27T12:26:37.548Z,12.9
2017-02-27T12:27:47.395Z,13.03
2017-02-27T12:28:56.875Z,12.85
2017-02-27T12:30:06.759Z,12.86
2017-02-27T12:31:16.616Z,12.9
2017-02-27T12:32:26.120Z,12.97
2017-02-27T12:33:35.225Z,12.9
2017-02-27T12:34:45.468Z,12.85
2017-02-27T12:35:55.703Z,12.87
2017-02-27T12:37:04.791Z,12.86
2017-02-27T12:38:14.661Z,12.85
2017-02-27T12:39:23.787Z,12.78
2017-02-27T12:40:33.264Z,12.79
2017-02-27T12:41:43.898Z,12.7
2017-02-27T12:42:53.743Z,12.77
2017-02-27T12:44:03.224Z,12.7
2017-02-27T12:45:12.320Z,12.62
2017-02-27T12:46:22.185Z,12.62
2017-02-27T12:47:31.287Z,12.68
2017-02-27T12:48:40.781Z,12.82
2017-02-27T12:49:50.248Z,12.83
2017-02-27T12:50:58.963Z,12.87
2017-02-27T12:52:07.675Z,12.93
2017-02-27T12:53:17.161Z,12.82
2017-02-27T12:54:27.008Z,12.86
2017-02-27T12:55:36.499Z,12.85
2017-02-27T12:56:45.968Z,12.85
2017-02-27T12:57:55.456Z,12.93
2017-02-27T12:59:05.339Z,12.92
2017-02-27T13:00:14.448Z,13
2017-02-27T13:01:23.938Z,13.05
2017-02-27T13:02:32.640Z,13
2017-02-27T13:03:41.368Z,13.08
2017-02-27T13:04:51.617Z,12.97
2017-02-27T13:06:00.720Z,13.01
2017-02-27T13:07:10.591Z,12.9
2017-02-27T13:08:20.453Z,12.85
2017-02-27T13:09:29.942Z,12.93
2017-02-27T13:10:40.203Z,12.86
2017-02-27T13:11:49.281Z,12.92
2017-02-27T13:12:59.131Z,12.9
2017-02-27T13:14:08.987Z,12.83
2017-02-27T13:15:18.852Z,13
2017-02-27T13:16:28.337Z,12.95
2017-02-27T13:17:37.436Z,13
2017-02-27T13:18:47.704Z,13
2017-02-27T13:19:57.180Z,12.92
2017-02-27T13:21:07.423Z,13.07
2017-02-27T13:22:17.300Z,13.05
2017-02-27T13:23:27.181Z,13.07
2017-02-27T13:24:36.268Z,13.12
2017-02-27T13:25:44.985Z,13.08
2017-02-27T13:26:54.856Z,13.07
2017-02-27T13:28:04.364Z,13.08
2017-02-27T13:29:13.829Z,13.17
2017-02-27T13:30:22.952Z,13.15
2017-02-27T13:31:32.084Z,13.05
2017-02-27T13:32:42.341Z,13.11
2017-02-27T13:33:51.831Z,13.08
2017-02-27T13:35:01.309Z,13.05
2017-02-27T13:36:11.179Z,12.96
2017-02-27T13:37:21.022Z,13
2017-02-27T13:38:30.507Z,13.05
2017-02-27T13:39:40.011Z,13.1
2017-02-27T13:40:49.124Z,13.12
2017-02-27T13:41:59.371Z,13.28
2017-02-27T13:43:09.620Z,13.26
2017-02-27T13:44:19.481Z,13.25
2017-02-27T13:45:28.952Z,13.28
2017-02-27T13:46:38.835Z,13.23
2017-02-27T13:47:49.094Z,13.26
2017-02-27T13:48:58.188Z,13.32
2017-02-27T13:50:08.485Z,13.32
2017-02-27T13:51:17.601Z,13.39
2017-02-27T13:52:27.074Z,13.42
2017-02-27T13:53:36.562Z,13.41
2017-02-27T13:54:46.829Z,13.25
2017-02-27T13:55:56.312Z,13.23
2017-02-27T13:57:05.825Z,13.2
2017-02-27T13:58:15.327Z,13.1
2017-02-27T13:59:25.226Z,13.1
2017-02-27T14:00:35.091Z,13.07
2017-02-27T14:01:44.967Z,13.05
2017-02-27T14:02:55.193Z,13.05
2017-02-27T14:04:04.674Z,13.2
2017-02-27T14:05:13.782Z,13.22
2017-02-27T14:06:22.884Z,13.28
2017-02-27T14:07:32.358Z,13.44
2017-02-27T14:08:41.066Z,13.51
2017-02-27T14:09:50.580Z,13.51
2017-02-27T14:11:00.075Z,13.55
2017-02-27T14:12:09.541Z,13.48
2017-02-27T14:13:19.028Z,13.48
2017-02-27T14:14:29.298Z,13.46
2017-02-27T14:15:39.154Z,13.48
2017-02-27T14:16:49.401Z,13.51
2017-02-27T14:17:58.483Z,13.69
2017-02-27T14:19:08.732Z,13.79
2017-02-27T14:20:17.822Z,13.82
2017-02-27T14:21:27.703Z,13.73
2017-02-27T14:22:37.953Z,13.85
2017-02-27T14:23:47.889Z,13.82
2017-02-27T14:24:58.141Z,13.75
2017-02-27T14:26:07.233Z,13.7
2017-02-27T14:27:17.532Z,13.63
2017-02-27T14:28:27.012Z,13.54
2017-02-27T14:29:36.468Z,13.49
2017-02-27T14:30:46.321Z,13.46
2017-02-27T14:31:55.024Z,13.26
2017-02-27T14:33:04.507Z,13.19
2017-02-27T14:34:14.396Z,13.19
2017-02-27T14:35:23.502Z,13.2
2017-02-27T14:36:32.978Z,13.05
2017-02-27T14:37:42.459Z,13.05
2017-02-27T14:38:52.357Z,13.05
2017-02-27T14:40:01.839Z,13.01
2017-02-27T14:41:11.728Z,13.04
2017-02-27T14:42:20.808Z,13.03
2017-02-27T14:43:29.505Z,13.07
2017-02-27T14:44:38.965Z,13
2017-02-27T14:45:48.461Z,13.04
2017-02-27T14:46:57.940Z,13.05
2017-02-27T14:48:07.049Z,13.08
2017-02-27T14:49:16.547Z,13.08
2017-02-27T14:50:26.017Z,13.12
2017-02-27T14:51:35.881Z,13.07
2017-02-27T14:52:45.745Z,13.07
2017-02-27T14:53:55.614Z,13.05
2017-02-27T14:55:05.854Z,12.9
2017-02-27T14:56:16.094Z,12.87
2017-02-27T14:57:25.962Z,12.87
2017-02-27T14:58:35.072Z,12.83
2017-02-27T14:59:44.556Z,12.82
2017-02-27T15:00:54.038Z,12.74
2017-02-27T15:02:03.925Z,12.75
2017-02-27T15:03:13.037Z,12.6
2017-02-27T15:04:23.268Z,12.74
2017-02-27T15:05:32.732Z,12.6
2017-02-27T15:06:41.440Z,12.49
2017-02-27T15:07:51.687Z,12.45
2017-02-27T15:09:01.916Z,12.21
2017-02-27T15:10:11.770Z,12.09
2017-02-27T15:11:20.906Z,11.94
2017-02-27T15:12:29.617Z,11.79
2017-02-27T15:13:39.465Z,11.61
2017-02-27T15:14:48.601Z,11.52
2017-02-27T15:15:57.698Z,11.46
2017-02-27T15:17:07.552Z,11.42